CAL4101 ZBAA-UUWW
Flight info
| Callsign | CAL4101 |
|---|---|
| Flight time | N/A |
| Altitude | 38100 |
| Route | IDKEX5Y IDKEX B339 UDA Y684 GINOM/K0898F400 T631 LONTE N869 IMNUS R372 NH N992 KUMEP T796 ORTIM L158 APTAR T787 OTKOL T784 LARNO T291 URIDU L158 DIMGI DIMGI3B |
| Aircraft | A359/H-SDE2E3GHIJ3J4J5LM1ORWXY/LB1D1 |
Departure
| Time | 2026-05-06 02:50 |
|---|---|
| Airport | Beijing Capital International Airport (ZBAA) |
Arrival
| Time | N/A |
|---|---|
| Airport | Vnukovo International Airport (UUWW) |
| Time | Latitude | Longitude | Altitude | Speed | Heading |
|---|---|---|---|---|---|
| 2026-05-06 02:41 | 40.08516 | 116.58247 | 131 ft | 0 kts | 354° |
| 2026-05-06 02:42 | 40.08513 | 116.58247 | 131 ft | 2 kts | 355° |
| 2026-05-06 02:42 | 40.08502 | 116.58249 | 101 ft | 2 kts | 350° |
| 2026-05-06 02:43 | 40.08486 | 116.58253 | 131 ft | 2 kts | 345° |
| 2026-05-06 02:43 | 40.08470 | 116.58261 | 125 ft | 2 kts | 332° |
| 2026-05-06 02:43 | 40.08457 | 116.58273 | 125 ft | 2 kts | 309° |
| 2026-05-06 02:43 | 40.08449 | 116.58292 | 125 ft | 2 kts | 278° |
| 2026-05-06 02:44 | 40.08449 | 116.58309 | 125 ft | 1 kts | 265° |
| 2026-05-06 02:44 | 40.08449 | 116.58312 | 125 ft | 0 kts | 264° |
| 2026-05-06 02:45 | 40.08447 | 116.58294 | 125 ft | 7 kts | 263° |
| 2026-05-06 02:45 | 40.08435 | 116.58174 | 126 ft | 19 kts | 263° |
| 2026-05-06 02:45 | 40.08415 | 116.57957 | 129 ft | 29 kts | 263° |
| 2026-05-06 02:45 | 40.08435 | 116.57765 | 127 ft | 17 kts | 288° |
| 2026-05-06 02:46 | 40.08425 | 116.57590 | 127 ft | 24 kts | 263° |
| 2026-05-06 02:46 | 40.08402 | 116.57504 | 128 ft | 9 kts | 216° |
| 2026-05-06 02:46 | 40.08314 | 116.57495 | 126 ft | 17 kts | 171° |
| 2026-05-06 02:46 | 40.08160 | 116.57524 | 128 ft | 28 kts | 172° |
| 2026-05-06 02:47 | 40.07933 | 116.57555 | 126 ft | 37 kts | 173° |
| 2026-05-06 02:47 | 40.07655 | 116.57600 | 127 ft | 43 kts | 173° |
| 2026-05-06 02:47 | 40.07439 | 116.57633 | 127 ft | 13 kts | 173° |
| 2026-05-06 02:47 | 40.07360 | 116.57616 | 127 ft | 7 kts | 232° |
| 2026-05-06 02:48 | 40.07351 | 116.57540 | 126 ft | 11 kts | 275° |
| 2026-05-06 02:48 | 40.07373 | 116.57437 | 126 ft | 12 kts | 307° |
| 2026-05-06 02:48 | 40.07438 | 116.57410 | 126 ft | 11 kts | 351° |
| 2026-05-06 02:48 | 40.07451 | 116.57407 | 127 ft | 0 kts | 352° |
| 2026-05-06 02:49 | 40.07456 | 116.57406 | 126 ft | 6 kts | 352° |
| 2026-05-06 02:49 | 40.07713 | 116.57365 | 126 ft | 70 kts | 353° |
| 2026-05-06 02:49 | 40.08394 | 116.57257 | 129 ft | 126 kts | 353° |
| 2026-05-06 02:49 | 40.09412 | 116.57097 | 265 ft | 160 kts | 353° |
| 2026-05-06 02:50 | 40.10507 | 116.56920 | 924 ft | 153 kts | 353° |
| 2026-05-06 02:50 | 40.11470 | 116.56305 | 1507 ft | 165 kts | 322° |
| 2026-05-06 02:50 | 40.12377 | 116.55242 | 1804 ft | 185 kts | 321° |
| 2026-05-06 02:50 | 40.13421 | 116.54079 | 1968 ft | 208 kts | 323° |
| 2026-05-06 02:51 | 40.14610 | 116.52853 | 2221 ft | 229 kts | 324° |
| 2026-05-06 02:51 | 40.15925 | 116.51521 | 2758 ft | 245 kts | 323° |
| 2026-05-06 02:51 | 40.17225 | 116.50053 | 3514 ft | 248 kts | 321° |
| 2026-05-06 02:51 | 40.18525 | 116.48529 | 4254 ft | 253 kts | 321° |
| 2026-05-06 02:52 | 40.19842 | 116.46986 | 4981 ft | 256 kts | 320° |
| 2026-05-06 02:52 | 40.21212 | 116.45512 | 5793 ft | 255 kts | 327° |
| 2026-05-06 02:52 | 40.22842 | 116.44640 | 6547 ft | 256 kts | 351° |
| 2026-05-06 02:52 | 40.24634 | 116.44791 | 7228 ft | 264 kts | 14° |
| 2026-05-06 02:53 | 40.26380 | 116.45641 | 7901 ft | 271 kts | 19° |
| 2026-05-06 02:53 | 40.28144 | 116.46605 | 8557 ft | 278 kts | 19° |
| 2026-05-06 02:53 | 40.29949 | 116.47579 | 9251 ft | 284 kts | 18° |
| 2026-05-06 02:53 | 40.31795 | 116.48560 | 9944 ft | 290 kts | 18° |
| 2026-05-06 02:54 | 40.33702 | 116.49569 | 10432 ft | 304 kts | 18° |
| 2026-05-06 02:54 | 40.35700 | 116.50616 | 10731 ft | 323 kts | 18° |
| 2026-05-06 02:54 | 40.37819 | 116.51727 | 11030 ft | 342 kts | 18° |
| 2026-05-06 02:54 | 40.40112 | 116.52930 | 11334 ft | 359 kts | 18° |
| 2026-05-06 02:55 | 40.42488 | 116.53993 | 11624 ft | 371 kts | 6° |
| 2026-05-06 02:55 | 40.45100 | 116.54332 | 12157 ft | 375 kts | 358° |
| 2026-05-06 02:55 | 40.47692 | 116.54494 | 12723 ft | 382 kts | 358° |
| 2026-05-06 02:55 | 40.50374 | 116.54667 | 13263 ft | 388 kts | 358° |
| 2026-05-06 02:56 | 40.53081 | 116.54852 | 13837 ft | 393 kts | 357° |
| 2026-05-06 02:56 | 40.55824 | 116.55047 | 14388 ft | 397 kts | 357° |
| 2026-05-06 02:56 | 40.58592 | 116.55242 | 15017 ft | 400 kts | 357° |
| 2026-05-06 02:56 | 40.61391 | 116.55443 | 15610 ft | 404 kts | 356° |
| 2026-05-06 02:57 | 40.64215 | 116.55654 | 16210 ft | 409 kts | 356° |
| 2026-05-06 02:57 | 40.67063 | 116.55866 | 16808 ft | 412 kts | 356° |
| 2026-05-06 02:57 | 40.69939 | 116.56077 | 17458 ft | 415 kts | 356° |
| 2026-05-06 02:57 | 40.72842 | 116.56291 | 18032 ft | 420 kts | 356° |
| 2026-05-06 02:58 | 40.75776 | 116.56508 | 18502 ft | 425 kts | 356° |
| 2026-05-06 02:58 | 40.78739 | 116.56579 | 18994 ft | 425 kts | 352° |
| 2026-05-06 02:58 | 40.81679 | 116.56433 | 19557 ft | 424 kts | 349° |
| 2026-05-06 02:58 | 40.84642 | 116.56172 | 20130 ft | 427 kts | 348° |
| 2026-05-06 02:59 | 40.87612 | 116.55857 | 20691 ft | 429 kts | 348° |
| 2026-05-06 02:59 | 40.90597 | 116.55531 | 21246 ft | 433 kts | 348° |
| 2026-05-06 02:59 | 40.93614 | 116.55211 | 21752 ft | 438 kts | 348° |
| 2026-05-06 02:59 | 40.96663 | 116.54902 | 22305 ft | 442 kts | 348° |
| 2026-05-06 03:00 | 40.99744 | 116.54602 | 22845 ft | 446 kts | 348° |
| 2026-05-06 03:00 | 41.02844 | 116.54311 | 23417 ft | 449 kts | 348° |
| 2026-05-06 03:00 | 41.05973 | 116.54029 | 23874 ft | 451 kts | 348° |
| 2026-05-06 03:00 | 41.09113 | 116.53746 | 24365 ft | 454 kts | 348° |
| 2026-05-06 03:01 | 41.12271 | 116.53453 | 24829 ft | 456 kts | 347° |
| 2026-05-06 03:01 | 41.15439 | 116.53160 | 25321 ft | 457 kts | 347° |
| 2026-05-06 03:01 | 41.18619 | 116.52862 | 25827 ft | 458 kts | 347° |
| 2026-05-06 03:01 | 41.21758 | 116.52330 | 26295 ft | 452 kts | 339° |
| 2026-05-06 03:02 | 41.24765 | 116.51255 | 26784 ft | 443 kts | 331° |
| 2026-05-06 03:02 | 41.27550 | 116.49632 | 27264 ft | 434 kts | 323° |
| 2026-05-06 03:02 | 41.30200 | 116.47720 | 27774 ft | 433 kts | 321° |
| 2026-05-06 03:02 | 41.32810 | 116.45704 | 28234 ft | 434 kts | 320° |
| 2026-05-06 03:03 | 41.35406 | 116.43636 | 28624 ft | 436 kts | 319° |
| 2026-05-06 03:03 | 41.38002 | 116.41545 | 29131 ft | 436 kts | 320° |
| 2026-05-06 03:03 | 41.40597 | 116.39457 | 29593 ft | 437 kts | 320° |
| 2026-05-06 03:03 | 41.43206 | 116.37367 | 30007 ft | 438 kts | 320° |
| 2026-05-06 03:04 | 41.45827 | 116.35271 | 30333 ft | 440 kts | 320° |
| 2026-05-06 03:04 | 41.48462 | 116.33170 | 30612 ft | 443 kts | 319° |
| 2026-05-06 03:04 | 41.51115 | 116.31057 | 30922 ft | 445 kts | 319° |
| 2026-05-06 03:04 | 41.53770 | 116.28945 | 31336 ft | 444 kts | 319° |
| 2026-05-06 03:05 | 41.56387 | 116.26870 | 31814 ft | 442 kts | 319° |
| 2026-05-06 03:05 | 41.59021 | 116.24780 | 32256 ft | 440 kts | 319° |
| 2026-05-06 03:05 | 41.61644 | 116.22695 | 32679 ft | 438 kts | 318° |
| 2026-05-06 03:05 | 41.64263 | 116.20604 | 33036 ft | 438 kts | 318° |
| 2026-05-06 03:06 | 41.66874 | 116.18517 | 33428 ft | 437 kts | 318° |
| 2026-05-06 03:06 | 41.69475 | 116.16437 | 33867 ft | 434 kts | 317° |
| 2026-05-06 03:06 | 41.72063 | 116.14365 | 34217 ft | 433 kts | 317° |
| 2026-05-06 03:06 | 41.74645 | 116.12295 | 34551 ft | 432 kts | 317° |
| 2026-05-06 03:07 | 41.77217 | 116.10230 | 34869 ft | 430 kts | 317° |
| 2026-05-06 03:07 | 41.79777 | 116.08175 | 35219 ft | 428 kts | 317° |
| 2026-05-06 03:07 | 41.82329 | 116.06124 | 35548 ft | 427 kts | 317° |
| 2026-05-06 03:07 | 41.84870 | 116.04081 | 35876 ft | 425 kts | 317° |
| 2026-05-06 03:08 | 41.87399 | 116.02045 | 36183 ft | 423 kts | 317° |
| 2026-05-06 03:08 | 41.89915 | 116.00018 | 36515 ft | 421 kts | 317° |
| 2026-05-06 03:08 | 41.92423 | 115.97995 | 36819 ft | 419 kts | 317° |
| 2026-05-06 03:08 | 41.94918 | 115.95980 | 37132 ft | 418 kts | 316° |
| 2026-05-06 03:09 | 41.97394 | 115.93964 | 37428 ft | 414 kts | 315° |
| 2026-05-06 03:09 | 41.99787 | 115.91851 | 37711 ft | 409 kts | 313° |
| 2026-05-06 03:09 | 42.02115 | 115.89667 | 37892 ft | 408 kts | 313° |
| 2026-05-06 03:10 | 42.06749 | 115.85225 | 37902 ft | 409 kts | 313° |
| 2026-05-06 03:10 | 42.11420 | 115.80811 | 37905 ft | 411 kts | 313° |
| 2026-05-06 03:11 | 42.16123 | 115.76429 | 37906 ft | 411 kts | 313° |
| 2026-05-06 03:11 | 42.20822 | 115.72065 | 37906 ft | 410 kts | 313° |
| 2026-05-06 03:12 | 42.25521 | 115.67692 | 37906 ft | 410 kts | 313° |
| 2026-05-06 03:12 | 42.30214 | 115.63316 | 37899 ft | 410 kts | 313° |
| 2026-05-06 03:13 | 42.34904 | 115.58926 | 37910 ft | 410 kts | 313° |
| 2026-05-06 03:13 | 42.39590 | 115.54534 | 37911 ft | 410 kts | 313° |
| 2026-05-06 03:14 | 42.44268 | 115.50144 | 37913 ft | 409 kts | 313° |
| 2026-05-06 03:14 | 42.48944 | 115.45749 | 37913 ft | 409 kts | 313° |
| 2026-05-06 03:15 | 42.53615 | 115.41349 | 37909 ft | 409 kts | 313° |
| 2026-05-06 03:15 | 42.58284 | 115.36944 | 37915 ft | 409 kts | 313° |
| 2026-05-06 03:16 | 42.62947 | 115.32536 | 37918 ft | 409 kts | 313° |
| 2026-05-06 03:16 | 42.67582 | 115.28146 | 37912 ft | 408 kts | 313° |
| 2026-05-06 03:17 | 42.72239 | 115.23726 | 37915 ft | 408 kts | 313° |
| 2026-05-06 03:17 | 42.76895 | 115.19299 | 37916 ft | 408 kts | 313° |
| 2026-05-06 03:18 | 42.81549 | 115.14866 | 37913 ft | 408 kts | 313° |
| 2026-05-06 03:18 | 42.86197 | 115.10430 | 37913 ft | 409 kts | 313° |
| 2026-05-06 03:19 | 42.90858 | 115.05973 | 37911 ft | 409 kts | 313° |
| 2026-05-06 03:19 | 42.95511 | 115.01516 | 37914 ft | 409 kts | 313° |
| 2026-05-06 03:20 | 43.02499 | 114.94806 | 37913 ft | 409 kts | 313° |
| 2026-05-06 03:20 | 43.07159 | 114.90321 | 37910 ft | 410 kts | 313° |
| 2026-05-06 03:21 | 43.11822 | 114.85826 | 37908 ft | 410 kts | 313° |
| 2026-05-06 03:21 | 43.16541 | 114.81383 | 37915 ft | 412 kts | 314° |
| 2026-05-06 03:22 | 43.21286 | 114.76973 | 37912 ft | 413 kts | 314° |
| 2026-05-06 03:22 | 43.26035 | 114.72541 | 37917 ft | 413 kts | 314° |
| 2026-05-06 03:23 | 43.30755 | 114.68112 | 37920 ft | 414 kts | 314° |
| 2026-05-06 03:23 | 43.35535 | 114.63612 | 37922 ft | 414 kts | 314° |
| 2026-05-06 03:24 | 43.40264 | 114.59151 | 37927 ft | 415 kts | 314° |
| 2026-05-06 03:24 | 43.45027 | 114.54651 | 37932 ft | 416 kts | 314° |
| 2026-05-06 03:25 | 43.49796 | 114.50138 | 37939 ft | 416 kts | 314° |
| 2026-05-06 03:25 | 43.54571 | 114.45608 | 37937 ft | 417 kts | 314° |
| 2026-05-06 03:26 | 43.59356 | 114.41060 | 37944 ft | 418 kts | 314° |
| 2026-05-06 03:26 | 43.64149 | 114.36497 | 37954 ft | 419 kts | 314° |
| 2026-05-06 03:27 | 43.68953 | 114.31914 | 37953 ft | 420 kts | 314° |
| 2026-05-06 03:27 | 43.73772 | 114.27308 | 37962 ft | 422 kts | 314° |
| 2026-05-06 03:28 | 43.78610 | 114.22671 | 37967 ft | 424 kts | 314° |
| 2026-05-06 03:28 | 43.83459 | 114.18013 | 37973 ft | 425 kts | 314° |
| 2026-05-06 03:29 | 43.88333 | 114.13325 | 37979 ft | 428 kts | 315° |
| 2026-05-06 03:29 | 43.93232 | 114.08604 | 37988 ft | 430 kts | 315° |
| 2026-05-06 03:30 | 43.98159 | 114.03847 | 37989 ft | 433 kts | 315° |
| 2026-05-06 03:30 | 44.03111 | 113.99056 | 37997 ft | 435 kts | 315° |
| 2026-05-06 03:31 | 44.08046 | 113.94273 | 38003 ft | 436 kts | 315° |
| 2026-05-06 03:31 | 44.13027 | 113.89434 | 38011 ft | 437 kts | 315° |
| 2026-05-06 03:32 | 44.18023 | 113.84568 | 38017 ft | 439 kts | 315° |
| 2026-05-06 03:32 | 44.22221 | 113.80472 | 38021 ft | 440 kts | 315° |
| 2026-05-06 03:33 | 44.27233 | 113.75572 | 38031 ft | 441 kts | 315° |
| 2026-05-06 03:33 | 44.32261 | 113.70647 | 38037 ft | 442 kts | 315° |
| 2026-05-06 03:34 | 44.37294 | 113.65706 | 38048 ft | 442 kts | 315° |
| 2026-05-06 03:34 | 44.42326 | 113.60756 | 38052 ft | 443 kts | 316° |
| 2026-05-06 03:35 | 44.47366 | 113.55787 | 38057 ft | 443 kts | 316° |
| 2026-05-06 03:35 | 44.52378 | 113.50834 | 38066 ft | 444 kts | 316° |
| 2026-05-06 03:36 | 44.57430 | 113.45831 | 38072 ft | 445 kts | 316° |
| 2026-05-06 03:36 | 44.62488 | 113.40811 | 38079 ft | 446 kts | 316° |
| 2026-05-06 03:37 | 44.67551 | 113.35775 | 38081 ft | 446 kts | 316° |
| 2026-05-06 03:37 | 44.72620 | 113.30723 | 38089 ft | 447 kts | 316° |
| 2026-05-06 03:38 | 44.77547 | 113.25454 | 38091 ft | 440 kts | 309° |
| 2026-05-06 03:38 | 44.81507 | 113.19054 | 38092 ft | 431 kts | 301° |
| 2026-05-06 03:39 | 44.85116 | 113.12292 | 38102 ft | 432 kts | 300° |
| 2026-05-06 03:39 | 44.88675 | 113.05465 | 38104 ft | 433 kts | 300° |
| 2026-05-06 03:40 | 44.92247 | 112.98623 | 38096 ft | 434 kts | 301° |
| 2026-05-06 03:40 | 44.95836 | 112.91764 | 38103 ft | 435 kts | 301° |
| 2026-05-06 03:41 | 44.99425 | 112.84900 | 38114 ft | 436 kts | 301° |
| 2026-05-06 03:41 | 45.03031 | 112.77986 | 38122 ft | 437 kts | 301° |
| 2026-05-06 03:42 | 45.06633 | 112.71061 | 38122 ft | 438 kts | 301° |
| 2026-05-06 03:42 | 45.10241 | 112.64108 | 38125 ft | 439 kts | 301° |
| 2026-05-06 03:43 | 45.13853 | 112.57130 | 38129 ft | 440 kts | 301° |
| 2026-05-06 03:43 | 45.17471 | 112.50124 | 38130 ft | 441 kts | 301° |
| 2026-05-06 03:44 | 45.21094 | 112.43089 | 38133 ft | 442 kts | 301° |
| 2026-05-06 03:44 | 45.24721 | 112.36031 | 38130 ft | 443 kts | 301° |
| 2026-05-06 03:45 | 45.28352 | 112.28948 | 38133 ft | 444 kts | 301° |
| 2026-05-06 03:45 | 45.31980 | 112.21850 | 38130 ft | 444 kts | 301° |
| 2026-05-06 03:46 | 45.35588 | 112.14776 | 38136 ft | 445 kts | 301° |
| 2026-05-06 03:46 | 45.39234 | 112.07610 | 38141 ft | 445 kts | 302° |
| 2026-05-06 03:47 | 45.42843 | 112.00498 | 38145 ft | 446 kts | 302° |
| 2026-05-06 03:47 | 45.46466 | 111.93340 | 38148 ft | 445 kts | 302° |
| 2026-05-06 03:48 | 45.50080 | 111.86183 | 38151 ft | 445 kts | 302° |
| 2026-05-06 03:48 | 45.53686 | 111.79025 | 38155 ft | 444 kts | 302° |
| 2026-05-06 03:49 | 45.57282 | 111.71865 | 38154 ft | 443 kts | 302° |
| 2026-05-06 03:49 | 45.60870 | 111.64706 | 38154 ft | 443 kts | 302° |
| 2026-05-06 03:50 | 45.64450 | 111.57545 | 38159 ft | 442 kts | 302° |
| 2026-05-06 03:50 | 45.68017 | 111.50390 | 38160 ft | 442 kts | 302° |
| 2026-05-06 03:51 | 45.71578 | 111.43228 | 38163 ft | 442 kts | 302° |
| 2026-05-06 03:51 | 45.75109 | 111.36110 | 38167 ft | 441 kts | 302° |
| 2026-05-06 03:52 | 45.78655 | 111.28944 | 38169 ft | 441 kts | 302° |
| 2026-05-06 03:52 | 45.82198 | 111.21764 | 38171 ft | 441 kts | 302° |
| 2026-05-06 03:53 | 45.85739 | 111.14572 | 38181 ft | 441 kts | 302° |
| 2026-05-06 03:53 | 45.89276 | 111.07368 | 38183 ft | 441 kts | 302° |
| 2026-05-06 03:54 | 45.92806 | 111.00160 | 38186 ft | 442 kts | 302° |
| 2026-05-06 03:54 | 45.96339 | 110.92930 | 38187 ft | 443 kts | 302° |
| 2026-05-06 03:55 | 45.99875 | 110.85673 | 38196 ft | 444 kts | 302° |
| 2026-05-06 03:55 | 46.03416 | 110.78387 | 38197 ft | 445 kts | 302° |
| 2026-05-06 03:56 | 46.06963 | 110.71069 | 38199 ft | 446 kts | 302° |
| 2026-05-06 03:56 | 46.10512 | 110.63730 | 38204 ft | 447 kts | 302° |
| 2026-05-06 03:57 | 46.14067 | 110.56358 | 38208 ft | 448 kts | 302° |
| 2026-05-06 03:57 | 46.17627 | 110.48955 | 38208 ft | 449 kts | 302° |
| 2026-05-06 03:58 | 46.21187 | 110.41533 | 38215 ft | 450 kts | 302° |
| 2026-05-06 03:58 | 46.24750 | 110.34087 | 38221 ft | 451 kts | 302° |
| 2026-05-06 03:59 | 46.28314 | 110.26619 | 38222 ft | 452 kts | 302° |
| 2026-05-06 03:59 | 46.31880 | 110.19126 | 38224 ft | 452 kts | 302° |
| 2026-05-06 04:00 | 46.35447 | 110.11610 | 38226 ft | 453 kts | 302° |
| 2026-05-06 04:00 | 46.38987 | 110.04132 | 38227 ft | 454 kts | 302° |
| 2026-05-06 04:01 | 46.42552 | 109.96581 | 38232 ft | 454 kts | 302° |
| 2026-05-06 04:01 | 46.46115 | 109.89014 | 38235 ft | 454 kts | 302° |
| 2026-05-06 04:02 | 46.49673 | 109.81436 | 38238 ft | 455 kts | 302° |
| 2026-05-06 04:02 | 46.53229 | 109.73842 | 38236 ft | 455 kts | 302° |
| 2026-05-06 04:03 | 46.56780 | 109.66236 | 38233 ft | 455 kts | 302° |
| 2026-05-06 04:03 | 46.60332 | 109.58611 | 38234 ft | 455 kts | 302° |
| 2026-05-06 04:04 | 46.63874 | 109.50986 | 38240 ft | 455 kts | 302° |
| 2026-05-06 04:04 | 46.67409 | 109.43353 | 38235 ft | 455 kts | 302° |
| 2026-05-06 04:05 | 46.70941 | 109.35707 | 38235 ft | 455 kts | 302° |
| 2026-05-06 04:05 | 46.74466 | 109.28054 | 38237 ft | 455 kts | 302° |
| 2026-05-06 04:06 | 46.77986 | 109.20392 | 38238 ft | 454 kts | 302° |
| 2026-05-06 04:06 | 46.81496 | 109.12730 | 38235 ft | 454 kts | 302° |
| 2026-05-06 04:07 | 46.85005 | 109.05050 | 38237 ft | 454 kts | 302° |
| 2026-05-06 04:07 | 46.88501 | 108.97376 | 38231 ft | 454 kts | 302° |
| 2026-05-06 04:08 | 46.91994 | 108.89687 | 38229 ft | 454 kts | 302° |
| 2026-05-06 04:08 | 46.95478 | 108.81996 | 38225 ft | 454 kts | 302° |
| 2026-05-06 04:09 | 46.98960 | 108.74289 | 38222 ft | 453 kts | 302° |
| 2026-05-06 04:09 | 47.02432 | 108.66588 | 38221 ft | 453 kts | 302° |
| 2026-05-06 04:10 | 47.05913 | 108.58876 | 38214 ft | 453 kts | 302° |
| 2026-05-06 04:10 | 47.09386 | 108.51164 | 38208 ft | 453 kts | 302° |
| 2026-05-06 04:11 | 47.12852 | 108.43445 | 38208 ft | 453 kts | 302° |
| 2026-05-06 04:11 | 47.16313 | 108.35714 | 38205 ft | 453 kts | 302° |
| 2026-05-06 04:12 | 47.19767 | 108.27975 | 38207 ft | 453 kts | 302° |
| 2026-05-06 04:12 | 47.23192 | 108.20281 | 38202 ft | 453 kts | 302° |
| 2026-05-06 04:13 | 47.26636 | 108.12523 | 38202 ft | 453 kts | 302° |
| 2026-05-06 04:13 | 47.30073 | 108.04758 | 38198 ft | 453 kts | 302° |
| 2026-05-06 04:14 | 47.33505 | 107.96982 | 38195 ft | 452 kts | 302° |
| 2026-05-06 04:14 | 47.36931 | 107.89198 | 38199 ft | 452 kts | 302° |
| 2026-05-06 04:15 | 47.40349 | 107.81412 | 38198 ft | 452 kts | 302° |
| 2026-05-06 04:15 | 47.43771 | 107.73613 | 38200 ft | 452 kts | 302° |
| 2026-05-06 04:16 | 47.47187 | 107.65810 | 38206 ft | 452 kts | 302° |
| 2026-05-06 04:16 | 47.50596 | 107.58000 | 38206 ft | 452 kts | 302° |
| 2026-05-06 04:17 | 47.54000 | 107.50178 | 38203 ft | 452 kts | 302° |
| 2026-05-06 04:17 | 47.57399 | 107.42346 | 38206 ft | 452 kts | 302° |
| 2026-05-06 04:18 | 47.60789 | 107.34511 | 38213 ft | 452 kts | 302° |
| 2026-05-06 04:18 | 47.64173 | 107.26668 | 38218 ft | 451 kts | 302° |
| 2026-05-06 04:19 | 47.67550 | 107.18820 | 38226 ft | 451 kts | 302° |
| 2026-05-06 04:19 | 47.70917 | 107.10966 | 38224 ft | 451 kts | 302° |
| 2026-05-06 04:20 | 47.73691 | 107.04424 | 38228 ft | 451 kts | 301° |
| 2026-05-06 04:20 | 47.77025 | 106.96538 | 38257 ft | 451 kts | 301° |
| 2026-05-06 04:21 | 47.80897 | 106.87368 | 38266 ft | 450 kts | 301° |
| 2026-05-06 04:21 | 47.83678 | 106.80767 | 38265 ft | 449 kts | 301° |
| 2026-05-06 04:22 | 47.86991 | 106.72884 | 38266 ft | 449 kts | 301° |
| 2026-05-06 04:23 | 47.91923 | 106.61032 | 38260 ft | 448 kts | 301° |
| 2026-05-06 04:23 | 47.95170 | 106.53169 | 38254 ft | 448 kts | 301° |
| 2026-05-06 04:24 | 47.98433 | 106.45255 | 38252 ft | 447 kts | 301° |
| 2026-05-06 04:24 | 47.98982 | 106.43922 | 38246 ft | 447 kts | 301° |